Share

Pago Pago, AS

Kona International At Keahole (PHKO) Elev 43 ft | 19.74 °N, 156.05 °W | Change Station

Current weather conditions updated 8 minutes ago

Clear
Clear
74 °F
Feels Like 74 °F
N
0
Wind Variable Wind from North
Sunrise 6:30 AM
Sunset 6:13 PM
Moon Waning Gibbous

Today is forecast to be nearly the same temperature as yesterday. Morning showers and thunderstorms.

Pressure 29.99 in
Visibility 10.0 miles
Clouds Clear
Dew Point 62 °F
Humidity 66%
Rainfall 0.00 in
Snow Depth Not available.
UV 0 out of 16
Pollen Not available.
Air Quality Not available.
Flu Activity
METAR PHKO 191353Z AUTO 00000KT 10SM CLR 23/17 A2998 RMK AO2 SLP154 T02330167 TSNO

More Conditions Fewer Conditions

Pressure 29.99 in
Visibility 10.0 miles
Clouds Clear
Dew Point 62 °F
Humidity 66%
Rainfall 0.00 in
Snow Depth Not available.
UV 0 out of 16
Pollen Not available.
Air Quality Not available.
Flu Activity
METAR PHKO 191353Z AUTO 00000KT 10SM CLR 23/17 A2998 RMK AO2 SLP154 T02330167 TSNO

More Conditions Fewer Conditions

10-Day Weather Forecast

Almanac

Astronomy

Apr. 19, 2014 Rise Set
Actual Time 6:30 AM SST 6:13 PM SST
Civil Twilight 6:08 AM SST 6:35 PM SST
Nautical Twilight 5:43 AM SST 7:00 PM SST
Astronomical Twilight 5:18 AM SST 7:25 PM SST
Moon 10:30 PM SST 10:41 AM SST
Length of Visible Light 12h 26m
Length of Day
11h 43m
Tomorrow will be 0m 43s shorter.
Waning Gibbous, 79% of the Moon is Illuminated
Today
Waning Gibbous
Apr 22
Last Quarter
Apr 29
New
May 6
First Quarter
May 14
Full

Community

  • A Glorious Morning
    A Glorious Morning
  • Bleeding Hearts
    Bleeding Hearts
  • Sunset Silhouettes
    Sunset Silhouettes
  • FL sunset Perico Isle
    FL sunset Perico Isle
  • Cloudy spring view
    Cloudy spring view

WunderPhotos

Upload Photos

1,702,733 photos uploaded!

Nearby

Snow Depth

Station Depth Elevation
No new snow has been reported.

Coastal Water Temperatures

Place Temperature
No Stations Reporting

Earthquake Activity

City Distance Mag. Time & Date
No recent earthquake activity has been reported nearby.
Minimum magnitude displayed is 2.5.

Nearby Weather Stations

There are no personal weather stations in this area.

What do you think?

We're not finished. Please let us know what you like, what you don't like, and what you are still missing.